Time;durP1;ratioP1;P1;durP2;ratioP2;P2;SDS_P1;SDS_P2;PMS_P1;PMS_P2;Temp;Humidity;BMP_temperature;BMP_pressure;BME280_temperature;BME280_humidity;BME280_pressure;Samples;Min_cycle;Max_cycle;Signal;HPM_P1;HPM_P2
2020/12/27 00:00:38;;;;;;;9.33;5.46;;;;;;;0.02;68.75;99779.16;326222;108;2060618;-72
2020/12/27 00:01:43;;;;;;;12.34;5.98;;;;;;;-0.01;68.93;99780.27;364380;108;1961975;-72
2020/12/27 00:02:50;;;;;;;11.01;6.07;;;;;;;0.03;68.85;99779.98;363685;108;1962056;-73
2020/12/27 00:03:56;;;;;;;10.52;5.16;;;;;;;0.04;68.87;99776.38;329678;108;2645983;-72
2020/12/27 00:05:04;;;;;;;13.17;6.26;;;;;;;0.08;68.68;99777.77;363854;108;1963892;-72
2020/12/27 00:06:10;;;;;;;11.54;5.53;;;;;;;0.06;68.73;99793.02;353295;108;2198955;-72
2020/12/27 00:07:15;;;;;;;10.68;5.29;;;;;;;0.06;68.80;99785.89;346841;108;1965068;-72
2020/12/27 00:08:20;;;;;;;12.72;5.82;;;;;;;0.09;68.59;99787.43;358150;110;1962032;-72
2020/12/27 00:09:26;;;;;;;11.29;5.81;;;;;;;0.07;68.56;99770.78;359234;110;1961951;-71
2020/12/27 00:10:32;;;;;;;11.14;5.53;;;;;;;0.07;68.80;99773.44;352860;108;2205028;-72
2020/12/27 00:11:38;;;;;;;11.25;5.76;;;;;;;0.08;68.96;99772.45;341910;108;1962009;-72
2020/12/27 00:12:43;;;;;;;11.16;5.91;;;;;;;0.09;68.66;99790.92;364265;110;1960804;-71
2020/12/27 00:13:49;;;;;;;9.94;5.55;;;;;;;0.03;68.85;99772.89;363892;108;1962022;-72
2020/12/27 00:14:54;;;;;;;11.07;5.59;;;;;;;0.07;68.61;99794.69;365409;108;1961931;-71
2020/12/27 00:16:00;;;;;;;11.49;5.64;;;;;;;0.07;68.74;99781.41;339055;108;2480984;-72
2020/12/27 00:17:07;;;;;;;10.63;5.59;;;;;;;0.09;68.60;99774.98;341781;108;1961962;-71
2020/12/27 00:18:13;;;;;;;11.93;6.21;;;;;;;0.12;68.49;99774.70;363452;110;1965003;-71
2020/12/27 00:19:18;;;;;;;10.29;5.42;;;;;;;0.15;68.43;99778.91;331458;110;2533046;-72
2020/12/27 00:20:26;;;;;;;10.18;5.79;;;;;;;0.16;68.39;99781.45;359086;110;1963958;-72
2020/12/27 00:21:32;;;;;;;11.26;5.82;;;;;;;0.16;68.42;99777.92;326953;110;2608935;-72
2020/12/27 00:22:37;;;;;;;10.00;5.87;;;;;;;0.18;68.35;99779.47;334335;110;1962025;-72
2020/12/27 00:23:43;;;;;;;11.64;5.27;;;;;;;0.21;68.21;99788.98;359029;110;1962084;-71
2020/12/27 00:24:48;;;;;;;13.12;5.38;;;;;;;0.23;68.14;99792.34;359521;110;1962056;-71
2020/12/27 00:25:55;;;;;;;10.33;5.47;;;;;;;0.22;68.07;99790.68;314972;110;2839925;-72
2020/12/27 00:27:13;;;;;;;10.91;5.19;;;;;;;0.23;68.03;99778.23;350223;110;1963939;-72
2020/12/27 00:28:19;;;;;;;10.49;5.94;;;;;;;0.22;68.05;99795.99;342383;110;2201789;-73
2020/12/27 00:29:24;;;;;;;10.23;5.39;;;;;;;0.22;67.96;99785.37;371642;105;1961991;-72
2020/12/27 00:30:31;;;;;;;10.44;5.45;;;;;;;0.24;67.87;99793.18;375228;105;1961976;-71
2020/12/27 00:31:37;;;;;;;10.41;5.05;;;;;;;0.21;68.04;99781.88;352994;105;2389772;-71
2020/12/27 00:32:42;;;;;;;9.93;5.37;;;;;;;0.20;68.05;99777.52;356652;105;1960757;-72
2020/12/27 00:33:47;;;;;;;11.13;6.21;;;;;;;0.19;68.25;99786.48;376505;105;1960747;-72
2020/12/27 00:34:53;;;;;;;10.44;5.76;;;;;;;0.20;68.16;99788.14;376845;106;1960696;-72
2020/12/27 00:36:00;;;;;;;10.52;5.32;;;;;;;0.21;68.14;99779.22;376188;105;1960686;-72
2020/12/27 00:37:05;;;;;;;11.46;5.73;;;;;;;0.21;68.20;99781.88;345227;105;1960891;-72
2020/12/27 00:38:10;;;;;;;11.08;5.91;;;;;;;0.22;68.10;99795.99;375153;105;1960900;-72
2020/12/27 00:39:21;;;;;;;10.77;5.47;;;;;;;0.23;68.01;99791.52;373050;105;1961934;-72
2020/12/27 00:40:23;;;;;;;11.51;6.14;;;;;;;0.21;68.05;99788.98;348406;105;1963007;-71
2020/12/27 00:41:28;;;;;;;11.33;5.37;;;;;;;0.16;68.35;99792.06;371771;105;1961981;-72
2020/12/27 00:42:33;;;;;;;10.58;5.73;;;;;;;0.18;68.35;99782.13;375490;105;1965021;-72
2020/12/27 00:43:40;;;;;;;11.31;5.59;;;;;;;0.20;68.43;99787.31;374540;105;1961853;-71
2020/12/27 00:44:46;;;;;;;11.56;5.86;;;;;;;0.21;68.30;99784.53;339912;105;2639008;-72
2020/12/27 00:45:51;;;;;;;10.80;5.89;;;;;;;0.20;68.26;99790.80;374552;105;1961982;-71
2020/12/27 00:46:57;;;;;;;11.27;5.20;;;;;;;0.20;68.33;99789.97;375143;105;1960871;-72
2020/12/27 00:48:03;;;;;;;9.77;5.03;;;;;;;0.19;68.35;99783.83;374115;105;1962108;-72
2020/12/27 00:49:08;;;;;;;11.72;6.69;;;;;;;0.21;68.33;99789.84;346248;105;2540684;-71
2020/12/27 00:50:14;;;;;;;12.43;5.70;;;;;;;0.23;68.36;99794.17;375640;105;1961972;-72
2020/12/27 00:51:22;;;;;;;11.37;6.02;;;;;;;0.24;68.36;99793.18;374451;105;1961993;-71
2020/12/27 00:52:27;;;;;;;12.02;5.48;;;;;;;0.23;68.41;99796.83;337112;105;2046468;-71
2020/12/27 00:53:33;;;;;;;10.63;5.43;;;;;;;0.24;68.43;99798.49;372091;105;1965514;-71
2020/12/27 00:54:38;;;;;;;12.02;6.36;;;;;;;0.25;68.39;99798.38;368729;107;1961921;-73
2020/12/27 00:55:44;;;;;;;13.14;6.14;;;;;;;0.25;68.22;99805.51;369637;107;1961955;-72
2020/12/27 00:56:51;;;;;;;13.48;6.77;;;;;;;0.26;68.16;99802.70;353597;105;2387951;-72
2020/12/27 00:57:57;;;;;;;9.58;5.61;;;;;;;0.27;68.19;99800.91;374555;105;1962957;-71
2020/12/27 00:59:02;;;;;;;9.96;5.34;;;;;;;0.29;68.04;99798.92;373505;105;1963097;-71
2020/12/27 01:00:24;;;;;;;9.09;4.86;;;;;;;0.29;68.06;99801.58;334460;105;2054788;-71
2020/12/27 01:01:29;;;;;;;7.91;4.57;;;;;;;0.31;68.06;99804.95;368634;107;1961913;-71
2020/12/27 01:02:35;;;;;;;12.54;5.83;;;;;;;0.29;67.87;99797.14;369487;107;1963007;-71
2020/12/27 01:04:01;;;;;;;10.82;5.24;;;;;;;0.30;67.92;99796.15;343457;107;2473996;-71
2020/12/27 01:05:06;;;;;;;10.40;5.18;;;;;;;0.34;67.83;99791.39;348530;107;1961954;-72
2020/12/27 01:06:14;;;;;;;11.06;5.96;;;;;;;0.31;68.00;99791.67;369684;107;1963855;-72
2020/12/27 01:07:19;;;;;;;8.82;5.16;;;;;;;0.32;67.98;99790.67;341012;107;2535971;-72
2020/12/27 01:08:30;;;;;;;9.61;5.19;;;;;;;0.30;67.90;99787.34;370042;107;1962019;-71
2020/12/27 01:09:35;;;;;;;10.46;5.31;;;;;;;0.33;67.89;99793.21;367873;107;1962028;-72
2020/12/27 01:10:43;;;;;;;9.18;5.62;;;;;;;0.30;68.04;99787.34;330139;107;2694990;-71
2020/12/27 01:11:48;;;;;;;10.18;5.74;;;;;;;0.28;68.22;99794.60;360578;107;1962057;-72
2020/12/27 01:12:54;;;;;;;12.35;6.65;;;;;;;0.29;68.07;99790.95;360884;109;1964059;-71
2020/12/27 01:13:59;;;;;;;10.29;5.23;;;;;;;0.30;68.05;99790.83;362354;107;1961975;-71
2020/12/27 01:15:07;;;;;;;9.14;5.57;;;;;;;0.28;68.04;99787.47;367956;107;1962052;-72
2020/12/27 01:16:19;;;;;;;12.24;6.33;;;;;;;0.28;68.00;99795.44;356311;107;1961991;-71
2020/12/27 01:17:24;;;;;;;11.04;6.24;;;;;;;0.26;68.26;99789.41;346186;107;2429099;-71
2020/12/27 01:18:31;;;;;;;10.87;6.04;;;;;;;0.26;68.10;99791.23;370547;107;1961907;-71
2020/12/27 01:19:38;;;;;;;14.79;7.35;;;;;;;0.29;68.13;99788.30;368937;107;1961812;-72
2020/12/27 01:20:44;;;;;;;10.20;5.83;;;;;;;0.25;68.28;99785.09;363572;107;1962967;-72
2020/12/27 01:21:49;;;;;;;12.08;6.52;;;;;;;0.25;68.39;99778.94;369267;107;1964983;-72
2020/12/27 01:22:57;;;;;;;10.84;5.41;;;;;;;0.24;68.49;99785.21;318370;109;2156974;-72
2020/12/27 01:24:07;;;;;;;11.89;6.41;;;;;;;0.29;68.22;99781.20;352066;107;1961071;-73
2020/12/27 01:25:15;;;;;;;10.35;5.34;;;;;;;0.26;68.28;99796.55;369064;107;1962033;-73
2020/12/27 01:26:33;;;;;;;10.89;6.36;;;;;;;0.26;68.36;99785.92;369864;107;1961676;-72
2020/12/27 01:27:39;;;;;;;11.41;6.09;;;;;;;0.28;68.42;99776.84;330797;107;2710978;-72
2020/12/27 01:28:44;;;;;;;10.91;6.31;;;;;;;0.26;68.37;99780.61;357909;107;1962011;-71
2020/12/27 01:29:53;;;;;;;9.91;5.37;;;;;;;0.26;68.37;99789.41;368438;107;1961961;-71
2020/12/27 01:31:03;;;;;;;11.74;6.43;;;;;;;0.26;68.50;99792.06;330361;107;2078471;-72
2020/12/27 01:32:11;;;;;;;11.14;5.63;;;;;;;0.26;68.37;99793.89;367411;107;1961926;-71
2020/12/27 01:33:18;;;;;;;12.18;6.27;;;;;;;0.27;68.27;99800.91;361339;109;1961943;-71
2020/12/27 01:34:26;;;;;;;10.85;6.14;;;;;;;0.30;68.11;99792.66;361228;108;1961049;-72
2020/12/27 01:35:32;;;;;;;12.32;5.96;;;;;;;0.31;68.19;99803.13;369260;107;1964956;-73
2020/12/27 01:36:38;;;;;;;11.13;5.39;;;;;;;0.31;68.08;99816.41;362531;109;1961991;-71
2020/12/27 01:37:46;;;;;;;11.87;5.22;;;;;;;0.37;67.87;99807.05;358981;107;1962910;-71
2020/12/27 01:38:51;;;;;;;11.13;5.67;;;;;;;0.36;67.88;99816.02;367431;107;1964007;-71
2020/12/27 01:39:57;;;;;;;9.19;5.04;;;;;;;0.37;67.90;99812.37;368598;107;1962041;-71
2020/12/27 01:41:04;;;;;;;11.46;6.02;;;;;;;0.36;67.89;99816.02;342522;109;2388180;-72
2020/12/27 01:42:11;;;;;;;9.74;5.34;;;;;;;0.36;67.98;99818.67;362035;109;1961992;-72
2020/12/27 01:43:16;;;;;;;10.46;5.70;;;;;;;0.36;67.85;99819.50;329290;109;2623940;-72
2020/12/27 01:44:22;;;;;;;10.03;5.06;;;;;;;0.36;68.04;99810.70;369572;107;1962007;-72
2020/12/27 01:45:28;;;;;;;8.99;4.41;;;;;;;0.37;68.11;99812.37;369790;107;1962015;-72
2020/12/27 01:46:43;;;;;;;12.61;5.71;;;;;;;0.40;67.91;99817.44;340466;107;1961990;-71
2020/12/27 01:47:51;;;;;;;9.66;5.01;;;;;;;0.42;67.82;99812.80;368796;107;1961934;-71
2020/12/27 01:48:58;;;;;;;11.79;5.27;;;;;;;0.40;67.93;99810.30;369687;107;1962050;-71
2020/12/27 01:50:04;;;;;;;10.18;5.31;;;;;;;0.37;67.98;99818.55;333083;107;2014296;-72
2020/12/27 01:51:09;;;;;;;9.36;4.61;;;;;;;0.38;67.98;99820.22;369738;107;1961962;-72
2020/12/27 01:52:22;;;;;;;10.33;5.41;;;;;;;0.42;67.75;99816.32;346290;107;1962006;-71
2020/12/27 01:53:33;;;;;;;9.62;4.95;;;;;;;0.44;67.64;99826.80;368433;107;1961949;-72
2020/12/27 01:54:39;;;;;;;9.28;4.84;;;;;;;0.46;67.51;99822.19;363464;109;1962033;-72
2020/12/27 01:55:49;;;;;;;10.53;4.96;;;;;;;0.48;67.55;99824.69;363425;109;1962000;-72
2020/12/27 01:56:57;;;;;;;9.58;4.52;;;;;;;0.46;67.73;99826.67;364114;107;1961895;-72
2020/12/27 01:58:16;;;;;;;10.53;5.19;;;;;;;0.46;67.74;99829.33;369179;107;1961944;-71
2020/12/27 01:59:30;;;;;;;9.17;4.89;;;;;;;0.42;67.92;99831.40;333686;107;2648951;-71
2020/12/27 02:00:38;;;;;;;8.16;4.59;;;;;;;0.47;67.74;99833.66;354924;107;2263982;-71
2020/12/27 02:01:51;;;;;;;10.24;4.97;;;;;;;0.45;67.81;99831.16;369487;107;1962032;-71
2020/12/27 02:03:04;;;;;;;9.62;4.79;;;;;;;0.49;67.68;99831.70;339734;107;2367934;-72
2020/12/27 02:04:11;;;;;;;9.14;4.41;;;;;;;0.47;67.89;99825.69;334038;104;1963001;-72
2020/12/27 02:05:19;;;;;;;9.55;5.10;;;;;;;0.49;67.69;99827.23;360034;110;1964040;-71
2020/12/27 02:06:27;;;;;;;9.15;4.51;;;;;;;0.52;67.65;99826.11;359882;110;1962063;-71
2020/12/27 02:07:35;;;;;;;9.79;4.98;;;;;;;0.53;67.63;99818.02;327165;110;2604007;-72
2020/12/27 02:08:44;;;;;;;8.79;4.92;;;;;;;0.54;67.51;99832.14;350772;112;1964066;-72
2020/12/27 02:10:00;;;;;;;9.04;4.47;;;;;;;0.53;67.54;99836.62;342446;110;1961964;-71
2020/12/27 02:11:06;;;;;;;8.64;4.66;;;;;;;0.54;67.49;99837.45;360656;110;1963036;-72
2020/12/27 02:12:13;;;;;;;8.67;4.46;;;;;;;0.53;67.66;99833.09;342449;111;2261925;-71
2020/12/27 02:13:20;;;;;;;7.95;4.12;;;;;;;0.53;67.58;99836.62;357399;111;1962919;-72
2020/12/27 02:14:26;;;;;;;9.38;4.39;;;;;;;0.57;67.52;99831.86;306627;113;2202125;-71
2020/12/27 02:15:32;;;;;;;10.28;4.47;;;;;;;0.55;67.64;99837.30;359920;110;1960962;-71
2020/12/27 02:16:56;;;;;;;8.99;4.33;;;;;;;0.52;67.76;99845.55;355673;111;1962040;-71
2020/12/27 02:18:20;;;;;;;10.60;4.73;;;;;;;0.55;67.70;99839.13;359787;110;1962028;-71
2020/12/27 02:19:27;;;;;;;9.92;4.84;;;;;;;0.55;67.53;99841.78;360643;110;1961985;-71
2020/12/27 02:20:35;;;;;;;9.49;4.78;;;;;;;0.55;67.30;99847.93;356987;111;1964019;-72
2020/12/27 02:21:48;;;;;;;8.31;4.51;;;;;;;0.58;67.39;99846.81;361606;110;1964000;-71
2020/12/27 02:23:09;;;;;;;7.87;4.39;;;;;;;0.57;67.54;99843.33;336702;118;1962967;-71
2020/12/27 02:24:16;;;;;;;7.94;4.22;;;;;;;0.58;67.50;99839.70;303734;118;2201033;-72
2020/12/27 02:25:21;;;;;;;8.74;4.53;;;;;;;0.54;67.61;99846.27;345125;110;1963025;-71
2020/12/27 02:26:30;;;;;;;11.02;4.93;;;;;;;0.56;67.52;99846.14;337601;109;2868946;-71
2020/12/27 02:27:35;;;;;;;7.67;4.59;;;;;;;0.54;67.53;99848.92;333286;112;1962052;-72
2020/12/27 02:28:41;;;;;;;9.13;5.14;;;;;;;0.53;67.62;99841.94;357939;111;1961973;-71
2020/12/27 02:29:49;;;;;;;8.98;5.24;;;;;;;0.56;67.58;99851.45;334855;110;1961942;-71
2020/12/27 02:30:55;;;;;;;9.38;5.01;;;;;;;0.56;67.40;99852.28;349600;112;1961953;-71
2020/12/27 02:32:01;;;;;;;11.36;5.47;;;;;;;0.55;67.52;99852.41;359529;110;1962020;-71
2020/12/27 02:33:07;;;;;;;10.27;4.51;;;;;;;0.56;67.52;99859.42;335864;110;2464996;-71
2020/12/27 02:34:12;;;;;;;11.38;4.93;;;;;;;0.54;67.50;99861.38;342451;111;1962045;-71
2020/12/27 02:35:17;;;;;;;9.21;4.57;;;;;;;0.55;67.59;99855.07;352396;112;1963950;-72
2020/12/27 02:36:24;;;;;;;8.92;4.66;;;;;;;0.55;67.64;99855.91;351942;113;1960767;-70
2020/12/27 02:37:30;;;;;;;11.09;5.01;;;;;;;0.53;67.63;99857.88;338939;113;1961985;-71
2020/12/27 02:38:38;;;;;;;9.52;4.77;;;;;;;0.55;67.43;99858.56;359487;110;1961927;-72
2020/12/27 02:39:46;;;;;;;10.36;4.60;;;;;;;0.56;67.02;99857.61;359405;110;1961994;-71
2020/12/27 02:40:52;;;;;;;9.99;4.99;;;;;;;0.58;67.29;99854.79;359957;110;1961950;-71
2020/12/27 02:42:02;;;;;;;10.87;4.67;;;;;;;0.60;67.33;99858.99;340008;111;2303953;-72
2020/12/27 02:43:13;;;;;;;11.01;5.71;;;;;;;0.59;67.41;99862.64;330827;113;1961933;-71
2020/12/27 02:44:20;;;;;;;9.71;4.59;;;;;;;0.60;67.20;99864.31;359989;110;1962970;-71
2020/12/27 02:45:42;;;;;;;8.76;4.58;;;;;;;0.59;67.16;99875.94;360091;110;1961914;-71
2020/12/27 02:46:50;;;;;;;8.34;4.07;;;;;;;0.62;67.21;99869.50;301849;111;2224883;-71
2020/12/27 02:48:00;;;;;;;11.01;5.00;;;;;;;0.61;67.17;99873.98;338252;110;1962045;-72
2020/12/27 02:49:08;;;;;;;9.97;4.78;;;;;;;0.60;67.32;99872.28;360120;110;1961945;-71
2020/12/27 02:50:16;;;;;;;8.42;4.56;;;;;;;0.61;67.26;99865.17;347636;114;1962000;-71
2020/12/27 02:51:24;;;;;;;9.45;4.45;;;;;;;0.59;67.24;99875.94;319848;111;2657971;-70
2020/12/27 02:52:31;;;;;;;8.93;4.31;;;;;;;0.61;67.12;99870.49;360944;110;1964001;-72
2020/12/27 02:53:37;;;;;;;9.23;4.64;;;;;;;0.60;67.14;99880.26;346016;110;2261009;-71
2020/12/27 02:54:42;;;;;;;10.46;5.28;;;;;;;0.56;67.51;99875.38;356800;111;1961916;-72
2020/12/27 02:55:50;;;;;;;10.61;4.47;;;;;;;0.59;67.52;99881.25;342689;112;2879029;-70
2020/12/27 02:56:58;;;;;;;9.31;4.80;;;;;;;0.61;67.43;99900.57;360263;110;1962926;-71
2020/12/27 02:58:04;;;;;;;8.99;4.54;;;;;;;0.62;67.32;99883.62;356028;111;1962030;-71
2020/12/27 02:59:11;;;;;;;10.40;5.24;;;;;;;0.63;67.20;99887.95;360927;110;1962053;-72
2020/12/27 03:00:18;;;;;;;8.12;4.21;;;;;;;0.61;67.27;99889.10;349793;113;1964020;-71
2020/12/27 03:01:32;;;;;;;8.69;4.51;;;;;;;0.64;67.30;99894.14;357512;110;1961947;-72
2020/12/27 03:02:51;;;;;;;8.52;4.29;;;;;;;0.64;67.23;99894.97;335205;119;1964004;-71
2020/12/27 03:03:58;;;;;;;8.08;4.27;;;;;;;0.64;67.33;99894.14;344158;111;1961937;-72
2020/12/27 03:05:07;;;;;;;9.27;4.33;;;;;;;0.63;67.46;99900.41;336706;111;1961938;-71
2020/12/27 03:06:13;;;;;;;8.59;4.24;;;;;;;0.65;67.30;99898.47;349048;112;1962978;-71
2020/12/27 03:07:19;;;;;;;9.92;4.56;;;;;;;0.65;67.27;99898.47;360000;110;1962947;-72
2020/12/27 03:08:36;;;;;;;9.06;4.38;;;;;;;0.68;67.18;99902.67;338650;111;1961936;-71
2020/12/27 03:10:04;;;;;;;7.64;3.96;;;;;;;0.67;67.18;99901.00;359513;110;1961911;-72
2020/12/27 03:11:12;;;;;;;10.22;4.39;;;;;;;0.68;67.13;99892.88;359468;110;1961991;-70
2020/12/27 03:12:17;;;;;;;8.26;4.01;;;;;;;0.68;67.16;99892.88;347755;110;2244004;-71
2020/12/27 03:13:23;;;;;;;8.67;4.22;;;;;;;0.70;67.13;99898.06;332884;112;1961993;-70
2020/12/27 03:14:28;;;;;;;10.02;4.89;;;;;;;0.68;67.27;99894.70;361026;110;1961961;-71
2020/12/27 03:15:51;;;;;;;8.57;4.58;;;;;;;0.69;67.33;99896.36;310585;118;2500978;-71
2020/12/27 03:17:15;;;;;;;8.94;4.56;;;;;;;0.68;67.43;99907.98;292536;119;2889003;-71
2020/12/27 03:18:38;;;;;;;7.52;3.64;;;;;;;0.68;67.42;99913.30;347968;110;1961883;-71
2020/12/27 03:19:51;;;;;;;8.11;4.53;;;;;;;0.67;67.42;99914.30;336091;119;1961979;-73
2020/12/27 03:21:07;;;;;;;8.97;4.48;;;;;;;0.67;67.22;99901.84;358960;110;1961952;-71
2020/12/27 03:22:13;;;;;;;8.53;4.23;;;;;;;0.68;67.10;99908.83;334365;110;2505001;-72
2020/12/27 03:23:26;;;;;;;8.12;4.00;;;;;;;0.69;67.18;99915.84;350433;112;1963021;-72
2020/12/27 03:24:33;;;;;;;5.97;3.53;;;;;;;0.70;67.14;99912.19;359288;110;1962045;-72
2020/12/27 03:25:38;;;;;;;7.69;4.40;;;;;;;0.70;67.11;99922.83;358126;111;1962068;-72
2020/12/27 03:26:45;;;;;;;9.38;4.22;;;;;;;0.69;67.11;99902.55;320166;114;2594984;-72
2020/12/27 03:27:51;;;;;;;9.08;4.68;;;;;;;0.69;67.22;99910.52;345070;110;1962010;-71
2020/12/27 03:28:56;;;;;;;7.88;4.06;;;;;;;0.69;67.03;99907.87;361352;110;1962069;-71
2020/12/27 03:30:05;;;;;;;7.18;3.89;;;;;;;0.68;67.04;99902.67;343295;111;2258974;-72
2020/12/27 03:31:13;;;;;;;8.34;4.19;;;;;;;0.67;67.08;99901.00;357730;111;1962097;-72
2020/12/27 03:32:19;;;;;;;8.34;4.03;;;;;;;0.70;67.11;99895.41;334197;110;1962026;-72
2020/12/27 03:33:25;;;;;;;7.28;3.98;;;;;;;0.55;67.09;99879.83;351942;112;1963951;-72
2020/12/27 03:34:35;;;;;;;7.55;4.26;;;;;;;0.70;67.14;99912.19;359729;110;1962047;-70
2020/12/27 03:35:41;;;;;;;9.09;4.17;;;;;;;0.67;67.38;99907.16;342413;111;2266996;-72
2020/12/27 03:36:48;;;;;;;7.93;4.49;;;;;;;0.68;67.34;99916.80;351092;112;1961994;-71
2020/12/27 03:38:12;;;;;;;8.94;4.17;;;;;;;0.68;67.36;99930.09;356372;111;1961020;-71
2020/12/27 03:39:23;;;;;;;8.37;4.33;;;;;;;0.65;67.45;99928.55;355521;111;1961919;-71
2020/12/27 03:40:32;;;;;;;7.83;4.22;;;;;;;0.67;67.34;99917.79;349250;112;1965929;-70
2020/12/27 03:41:43;;;;;;;8.70;4.54;;;;;;;0.69;67.42;99922.95;320963;112;2557990;-72
2020/12/27 03:42:51;;;;;;;8.66;4.08;;;;;;;0.67;67.58;99927.59;359753;110;1961999;-71
2020/12/27 03:43:57;;;;;;;8.77;3.99;;;;;;;0.66;67.66;99926.72;343053;110;2344987;-70
2020/12/27 03:45:05;;;;;;;9.03;4.40;;;;;;;0.65;67.56;99928.55;351874;110;1962942;-70
2020/12/27 03:46:13;;;;;;;8.72;4.00;;;;;;;0.65;67.31;99933.86;350528;110;1965496;-71
2020/12/27 03:47:23;;;;;;;11.81;4.26;;;;;;;0.65;67.51;99928.55;361025;110;1961956;-71
2020/12/27 03:48:34;;;;;;;7.13;3.77;;;;;;;0.67;67.37;99936.40;358329;110;1962023;-71
2020/12/27 03:49:41;;;;;;;8.43;4.22;;;;;;;0.70;66.97;99940.61;356541;110;1961966;-71
2020/12/27 03:50:58;;;;;;;10.51;4.12;;;;;;;0.69;67.21;99937.11;360949;110;1964019;-72
2020/12/27 03:52:04;;;;;;;8.88;4.44;;;;;;;0.68;67.33;99940.73;345863;110;1961918;-70
2020/12/27 03:53:28;;;;;;;7.94;4.43;;;;;;;0.70;67.17;99941.44;315043;111;2167616;-71
2020/12/27 03:54:36;;;;;;;10.39;3.81;;;;;;;0.70;67.28;99940.61;341560;115;1962985;-72
2020/12/27 03:55:55;;;;;;;6.97;3.58;;;;;;;0.72;67.30;99933.34;342477;115;1961926;-70
2020/12/27 03:57:19;;;;;;;7.71;4.20;;;;;;;0.72;67.35;99943.98;355256;111;1963986;-71
2020/12/27 03:58:27;;;;;;;6.13;3.30;;;;;;;0.72;67.40;99936.83;358354;110;1963006;-71
2020/12/27 03:59:35;;;;;;;6.44;3.39;;;;;;;0.73;67.18;99943.82;307104;113;2833942;-71
2020/12/27 04:00:43;;;;;;;8.27;4.01;;;;;;;0.73;67.09;99951.80;354791;112;1962037;-72
2020/12/27 04:01:50;;;;;;;6.23;3.51;;;;;;;0.75;67.10;99949.02;352242;110;1962011;-71
2020/12/27 04:02:57;;;;;;;7.32;4.04;;;;;;;0.74;67.20;99953.50;360886;110;1962968;-72
2020/12/27 04:04:03;;;;;;;7.54;4.23;;;;;;;0.74;67.13;99950.84;351454;110;1960956;-70
2020/12/27 04:05:09;;;;;;;8.34;4.18;;;;;;;0.72;67.26;99952.78;359460;110;1963948;-71
2020/12/27 04:06:15;;;;;;;7.58;3.69;;;;;;;0.73;67.27;99949.14;354867;112;1961980;-71
2020/12/27 04:07:21;;;;;;;7.44;3.47;;;;;;;0.74;67.37;99949.98;341098;111;2254949;-71
2020/12/27 04:08:28;;;;;;;7.73;3.67;;;;;;;0.75;67.24;99959.66;358708;110;1961998;-71
2020/12/27 04:09:34;;;;;;;7.08;3.71;;;;;;;0.78;67.10;99957.55;358069;110;1961932;-71
2020/12/27 04:10:40;;;;;;;6.63;3.55;;;;;;;0.77;66.94;99955.88;338497;110;1964016;-70
2020/12/27 04:11:45;;;;;;;6.73;3.73;;;;;;;0.78;67.07;99957.55;359417;110;1961946;-70
2020/12/27 04:12:50;;;;;;;8.40;3.73;;;;;;;0.76;67.04;99956.84;358232;110;1962936;-73
2020/12/27 04:13:57;;;;;;;7.66;4.18;;;;;;;0.76;67.09;99956.84;359146;110;1961040;-71
2020/12/27 04:15:03;;;;;;;8.41;4.08;;;;;;;0.76;67.14;99958.66;336144;112;2370053;-71
2020/12/27 04:16:10;;;;;;;8.77;4.22;;;;;;;0.77;67.00;99955.05;354412;110;1962021;-71
2020/12/27 04:17:16;;;;;;;6.87;3.65;;;;;;;0.76;67.02;99953.34;321391;115;2209042;-72
2020/12/27 04:18:21;;;;;;;8.46;4.37;;;;;;;0.72;67.13;99958.11;332499;113;1963835;-71
2020/12/27 04:19:31;;;;;;;8.18;4.24;;;;;;;0.73;67.25;99956.28;342208;116;1961883;-71
2020/12/27 04:20:44;;;;;;;10.69;4.36;;;;;;;0.75;67.24;99957.00;354475;110;1966041;-71
2020/12/27 04:21:49;;;;;;;7.60;3.87;;;;;;;0.77;67.15;99953.22;322188;113;2218991;-72
2020/12/27 04:23:05;;;;;;;8.31;4.21;;;;;;;0.77;67.08;99949.73;358303;110;1963359;-71
2020/12/27 04:24:12;;;;;;;7.32;3.88;;;;;;;0.76;66.95;99945.37;358546;110;1964035;-71
2020/12/27 04:25:18;;;;;;;7.74;3.64;;;;;;;0.75;67.09;99952.52;359762;110;1961971;-71
2020/12/27 04:26:25;;;;;;;7.79;3.78;;;;;;;0.76;66.87;99956.84;360293;110;1962000;-71
2020/12/27 04:27:32;;;;;;;7.32;3.54;;;;;;;0.74;66.95;99958.81;340977;110;1961960;-70
2020/12/27 04:28:37;;;;;;;7.64;4.62;;;;;;;0.73;67.03;99962.44;359514;110;1961937;-71
2020/12/27 04:29:43;;;;;;;8.36;4.23;;;;;;;0.74;67.17;99960.61;358610;110;1961994;-71
2020/12/27 04:30:51;;;;;;;8.75;4.04;;;;;;;0.73;67.12;99962.44;355733;111;1961967;-71
2020/12/27 04:32:08;;;;;;;7.27;3.76;;;;;;;0.72;67.27;99963.42;358310;110;1962066;-71
2020/12/27 04:33:21;;;;;;;7.16;3.82;;;;;;;0.74;67.29;99965.93;339181;116;1962030;-72
2020/12/27 04:34:31;;;;;;;9.08;4.11;;;;;;;0.76;67.33;99963.98;356571;110;1962977;-72
2020/12/27 04:35:37;;;;;;;7.85;4.02;;;;;;;0.77;67.25;99961.20;328617;110;2564021;-71
2020/12/27 04:36:43;;;;;;;7.48;3.79;;;;;;;0.77;67.15;99957.70;357611;111;1961985;-71
2020/12/27 04:37:51;;;;;;;8.36;3.57;;;;;;;0.77;67.13;99955.88;326187;111;2610923;-71
2020/12/27 04:38:58;;;;;;;8.39;5.25;;;;;;;0.78;67.21;99962.87;356610;111;1963001;-71
2020/12/27 04:40:05;;;;;;;8.90;3.98;;;;;;;0.80;67.17;99963.58;336855;111;2387854;-71
2020/12/27 04:41:15;;;;;;;8.36;4.45;;;;;;;0.81;67.21;99973.23;357150;111;1962035;-71
2020/12/27 04:42:24;;;;;;;6.86;3.74;;;;;;;0.82;67.31;99966.95;350477;113;1964928;-71
2020/12/27 04:43:35;;;;;;;8.50;4.12;;;;;;;0.81;67.20;99972.39;359029;110;1970306;-70
2020/12/27 04:44:41;;;;;;;8.00;3.87;;;;;;;0.82;67.19;99974.06;352722;113;1962987;-71
2020/12/27 04:45:51;;;;;;;8.02;3.88;;;;;;;0.82;67.17;99972.27;344500;110;1961988;-71
2020/12/27 04:47:01;;;;;;;6.89;3.62;;;;;;;0.82;67.15;99974.06;358867;110;1962936;-72
2020/12/27 04:48:11;;;;;;;7.40;3.85;;;;;;;0.81;67.14;99977.71;333049;111;2453957;-71
2020/12/27 04:49:29;;;;;;;6.81;3.33;;;;;;;0.80;67.13;99968.06;354826;111;1962010;-71
2020/12/27 04:50:36;;;;;;;8.24;4.36;;;;;;;0.80;67.20;99979.54;357734;110;1962013;-71
2020/12/27 04:51:45;;;;;;;8.29;4.20;;;;;;;0.79;67.20;99987.64;359038;110;1964004;-71
2020/12/27 04:53:04;;;;;;;8.53;4.30;;;;;;;0.79;67.15;99985.81;310533;110;2241136;-72
2020/12/27 04:54:13;;;;;;;7.24;3.94;;;;;;;0.76;67.16;99980.77;360540;110;1960803;-71
2020/12/27 04:55:27;;;;;;;11.64;4.89;;;;;;;0.77;67.35;99984.30;358764;110;1961791;-72
2020/12/27 04:56:38;;;;;;;8.91;4.41;;;;;;;0.79;67.29;99985.81;357742;111;1960923;-72
2020/12/27 04:57:49;;;;;;;9.15;3.99;;;;;;;0.81;67.36;99981.20;359967;110;1961812;-71
2020/12/27 04:58:56;;;;;;;9.20;3.72;;;;;;;0.81;67.30;99975.05;360232;110;1960779;-71
2020/12/27 05:00:06;;;;;;;8.31;4.36;;;;;;;0.82;67.28;99980.25;357379;111;1961928;-72
2020/12/27 05:01:30;;;;;;;9.76;3.98;;;;;;;0.84;67.33;99982.76;322906;113;2547086;-71
2020/12/27 05:02:49;;;;;;;8.56;4.19;;;;;;;0.84;67.43;99980.94;341081;110;2341091;-72
2020/12/27 05:03:56;;;;;;;8.27;3.83;;;;;;;0.84;67.37;99983.59;349993;110;1964947;-72
2020/12/27 05:05:12;;;;;;;7.02;3.91;;;;;;;0.88;67.21;99989.50;343714;110;2279909;-71
2020/12/27 05:06:15;;;;;;;8.46;3.87;;;;;;;0.88;67.15;99990.34;358444;110;1961942;-71
2020/12/27 05:07:24;;;;;;;7.87;4.42;;;;;;;0.87;67.02;99987.80;359154;110;1969001;-70
2020/12/27 05:08:43;;;;;;;7.39;3.63;;;;;;;0.86;67.24;99994.11;346458;110;1961982;-71
2020/12/27 05:09:51;;;;;;;7.98;4.30;;;;;;;0.82;67.21;99987.36;351222;113;1963024;-71
2020/12/27 05:10:57;;;;;;;7.81;4.14;;;;;;;0.85;67.13;99992.44;353693;113;1962066;-72
2020/12/27 05:12:04;;;;;;;7.56;4.09;;;;;;;0.86;67.25;99992.28;357207;111;1962047;-72
2020/12/27 05:13:11;;;;;;;10.98;5.48;;;;;;;0.86;67.21;99996.77;323875;113;2563020;-71
2020/12/27 05:14:17;;;;;;;8.16;4.02;;;;;;;0.85;67.38;100000.41;347865;113;1962100;-71
2020/12/27 05:15:24;;;;;;;10.24;4.61;;;;;;;0.86;67.42;99994.95;336549;110;1961953;-71
2020/12/27 05:16:33;;;;;;;8.05;4.41;;;;;;;0.87;67.21;99998.44;350601;110;2860052;-71
2020/12/27 05:17:38;;;;;;;8.92;4.32;;;;;;;0.85;67.21;99998.59;348228;113;1961949;-71